createdAt,value
2023-04-11T00:00:37.220Z,72.70
2023-04-11T00:03:25.491Z,73.10
2023-04-11T00:06:13.201Z,72.10
2023-04-11T00:09:01.343Z,72.00
2023-04-11T00:11:48.631Z,71.80
2023-04-11T00:14:35.692Z,71.70
2023-04-11T00:17:24.878Z,71.40
2023-04-11T00:20:13.192Z,71.20
2023-04-11T00:23:00.124Z,71.00
2023-04-11T00:25:46.968Z,71.00
2023-04-11T00:28:34.318Z,70.80
2023-04-11T00:31:21.724Z,70.60
2023-04-11T00:34:10.100Z,70.60
2023-04-11T00:36:57.255Z,70.40
2023-04-11T00:39:45.423Z,70.50
2023-04-11T00:42:33.093Z,70.40
2023-04-11T00:45:20.110Z,70.30
2023-04-11T00:48:07.580Z,70.20
2023-04-11T00:50:57.145Z,70.10
2023-04-11T00:53:45.911Z,70.00
2023-04-11T00:56:32.942Z,70.00
2023-04-11T00:59:20.369Z,69.90
2023-04-11T01:02:08.270Z,69.70
2023-04-11T01:04:56.403Z,69.90
2023-04-11T01:07:48.252Z,69.80
2023-04-11T01:10:35.909Z,69.90
2023-04-11T01:13:23.223Z,69.90
2023-04-11T01:16:11.267Z,70.00
2023-04-11T01:18:58.830Z,69.90
2023-04-11T01:21:46.845Z,70.00
2023-04-11T01:24:35.770Z,70.30
2023-04-11T01:27:23.134Z,70.20
2023-04-11T01:30:12.730Z,70.40
2023-04-11T01:33:00.108Z,70.30
2023-04-11T01:35:47.886Z,70.30
2023-04-11T01:38:35.013Z,70.40
2023-04-11T01:41:24.714Z,70.60
2023-04-11T01:44:12.534Z,70.80
2023-04-11T01:46:59.839Z,70.90
2023-04-11T01:49:47.076Z,71.00
2023-04-11T01:52:34.336Z,71.10
2023-04-11T01:55:21.527Z,71.60
2023-04-11T01:58:10.223Z,72.00
2023-04-11T02:01:00.529Z,71.90
2023-04-11T02:03:47.706Z,71.90
2023-04-11T02:06:34.943Z,71.90
2023-04-11T02:09:22.080Z,71.70
2023-04-11T02:12:09.408Z,71.60
2023-04-11T02:14:58.224Z,71.50
2023-04-11T02:17:46.349Z,71.00
2023-04-11T02:20:33.538Z,70.50
2023-04-11T02:23:20.827Z,70.30
2023-04-11T02:26:07.895Z,69.30
2023-04-11T02:28:55.369Z,68.90
2023-04-11T02:31:44.115Z,68.30
2023-04-11T02:34:31.311Z,68.00
2023-04-11T02:37:18.310Z,67.70
2023-04-11T02:40:06.267Z,67.30
2023-04-11T02:42:53.395Z,67.10
2023-04-11T02:45:41.278Z,66.50
2023-04-11T02:48:30.453Z,65.40
2023-04-11T02:51:17.341Z,66.30
2023-04-11T02:54:05.279Z,65.70
2023-04-11T02:56:56.814Z,65.30
2023-04-11T02:59:43.983Z,64.90
2023-04-11T03:02:32.575Z,64.90
2023-04-11T03:05:22.400Z,65.20
2023-04-11T03:08:12.900Z,64.70
2023-04-11T03:11:07.827Z,65.30
2023-04-11T03:13:55.244Z,64.70
2023-04-11T03:16:42.316Z,64.50
2023-04-11T03:19:29.084Z,64.30
2023-04-11T03:22:19.145Z,64.40
2023-04-11T03:25:08.938Z,64.50
2023-04-11T03:27:57.315Z,64.50
2023-04-11T03:30:44.982Z,64.30
2023-04-11T03:33:34.364Z,64.10
2023-04-11T03:36:22.501Z,63.80
2023-04-11T03:39:11.432Z,63.70
2023-04-11T03:41:58.553Z,63.40
2023-04-11T03:44:46.954Z,63.00
2023-04-11T03:47:35.159Z,62.80
2023-04-11T03:50:23.471Z,62.60
2023-04-11T03:53:17.142Z,63.40
2023-04-11T03:56:08.481Z,63.20
2023-04-11T03:58:58.678Z,63.30
2023-04-11T04:01:50.501Z,63.80
2023-04-11T04:04:39.030Z,63.80
2023-04-11T04:07:39.803Z,64.00
2023-04-11T04:10:34.451Z,63.70
2023-04-11T04:13:23.122Z,63.70
2023-04-11T04:16:21.161Z,63.60
2023-04-11T04:19:13.811Z,63.20
2023-04-11T04:22:06.044Z,63.00
2023-04-11T04:24:58.422Z,62.80
2023-04-11T04:27:54.236Z,63.00
2023-04-11T04:30:54.526Z,63.10
2023-04-11T04:33:44.581Z,63.00
2023-04-11T04:36:47.861Z,63.40
2023-04-11T04:39:42.408Z,63.00
2023-04-11T04:42:34.635Z,63.00
2023-04-11T04:45:24.842Z,63.80
2023-04-11T04:48:14.576Z,64.50
2023-04-11T04:51:03.430Z,65.40
2023-04-11T04:53:51.250Z,66.00
2023-04-11T04:56:38.223Z,67.10
2023-04-11T04:59:26.348Z,66.40
2023-04-11T05:02:21.920Z,66.80
2023-04-11T05:05:14.307Z,66.70
2023-04-11T05:08:02.262Z,67.20
2023-04-11T05:10:54.472Z,67.40
2023-04-11T05:13:42.073Z,68.20
2023-04-11T05:16:29.463Z,68.50
2023-04-11T05:19:18.132Z,69.40
2023-04-11T05:22:09.723Z,70.40
2023-04-11T05:24:59.915Z,71.60
2023-04-11T05:27:46.966Z,73.00
2023-04-11T05:30:35.071Z,73.70
2023-04-11T05:33:25.014Z,74.20
2023-04-11T05:36:14.676Z,74.50
2023-04-11T05:39:04.251Z,74.60
2023-04-11T05:41:51.471Z,74.60
2023-04-11T05:44:40.551Z,74.50
2023-04-11T05:47:28.303Z,74.50
2023-04-11T05:50:16.660Z,74.60
2023-04-11T05:53:04.964Z,74.80
2023-04-11T05:55:54.110Z,75.20
2023-04-11T05:58:45.191Z,75.50
2023-04-11T06:01:32.735Z,75.90
2023-04-11T06:04:22.759Z,76.50
2023-04-11T06:07:11.274Z,76.90
2023-04-11T06:09:59.128Z,77.50
2023-04-11T06:12:51.073Z,78.00
2023-04-11T06:15:39.727Z,78.40
2023-04-11T06:18:27.774Z,78.70
2023-04-11T06:21:15.675Z,79.10
2023-04-11T06:24:07.094Z,79.40
2023-04-11T06:26:54.858Z,79.60
2023-04-11T06:29:44.221Z,79.60
2023-04-11T06:32:38.329Z,80.00
2023-04-11T06:35:29.073Z,80.20
2023-04-11T06:38:20.926Z,80.30
2023-04-11T06:41:10.931Z,80.60
2023-04-11T06:44:01.507Z,80.90
2023-04-11T06:46:50.805Z,81.40
2023-04-11T06:49:38.466Z,82.00
2023-04-11T06:52:28.718Z,82.50
2023-04-11T06:55:21.203Z,83.20
2023-04-11T06:58:11.440Z,83.90
2023-04-11T07:01:05.882Z,84.90
2023-04-11T07:04:01.554Z,85.70
2023-04-11T07:06:51.268Z,86.20
2023-04-11T07:09:38.498Z,86.60
2023-04-11T07:12:25.674Z,87.10
2023-04-11T07:15:12.989Z,87.50
2023-04-11T07:17:59.967Z,87.20
2023-04-11T07:20:48.717Z,88.60
2023-04-11T07:23:35.963Z,89.20
2023-04-11T07:26:23.762Z,89.40
2023-04-11T07:29:13.887Z,90.00
2023-04-11T07:32:02.584Z,90.10
2023-04-11T07:34:52.791Z,90.40
2023-04-11T07:37:42.440Z,90.70
2023-04-11T07:40:29.500Z,90.90
2023-04-11T07:43:16.577Z,91.10
2023-04-11T07:46:03.614Z,91.20
2023-04-11T07:48:59.041Z,91.20
2023-04-11T07:51:51.734Z,91.50
2023-04-11T07:54:46.868Z,91.60
2023-04-11T07:57:39.923Z,91.60
2023-04-11T08:00:32.956Z,91.70
2023-04-11T08:03:21.212Z,91.80
2023-04-11T08:06:14.623Z,91.90
2023-04-11T08:09:02.207Z,92.00
2023-04-11T08:11:51.331Z,92.00
2023-04-11T08:14:39.019Z,92.10
2023-04-11T08:17:38.408Z,92.20
2023-04-11T08:20:27.554Z,92.00
2023-04-11T08:23:20.972Z,91.90
2023-04-11T08:26:13.168Z,91.90
2023-04-11T08:29:11.507Z,91.70
2023-04-11T08:31:58.565Z,92.20
2023-04-11T08:34:45.454Z,92.00
2023-04-11T08:37:32.833Z,92.00
2023-04-11T08:40:19.684Z,92.00
2023-04-11T08:43:12.439Z,91.80
2023-04-11T08:46:02.709Z,91.80
2023-04-11T08:48:49.754Z,91.60
2023-04-11T08:51:36.986Z,91.40
2023-04-11T08:54:23.868Z,91.30
2023-04-11T08:57:28.542Z,90.90
2023-04-11T09:00:19.467Z,90.20
2023-04-11T09:03:19.032Z,90.40
2023-04-11T09:06:11.797Z,90.40
2023-04-11T09:09:00.666Z,90.40
2023-04-11T09:11:59.061Z,90.30
2023-04-11T09:14:52.267Z,90.00
2023-04-11T09:17:49.922Z,90.10
2023-04-11T09:20:38.912Z,89.90
2023-04-11T09:23:27.774Z,89.80
2023-04-11T09:26:28.841Z,90.00
2023-04-11T09:29:44.431Z,90.00
2023-04-11T09:32:34.939Z,90.10
2023-04-11T09:35:28.784Z,90.10
2023-04-11T09:38:31.149Z,89.40
2023-04-11T09:41:32.590Z,88.30
2023-04-11T09:44:36.009Z,87.70
2023-04-11T09:47:33.172Z,88.00
2023-04-11T09:50:21.700Z,87.60
2023-04-11T09:53:12.688Z,87.70
2023-04-11T09:56:06.547Z,87.10
2023-04-11T09:58:57.018Z,86.70
2023-04-11T10:01:45.773Z,86.70
2023-04-11T10:04:50.508Z,86.80
2023-04-11T10:07:50.857Z,86.00
2023-04-11T10:10:39.422Z,86.10
2023-04-11T10:13:43.968Z,85.60
2023-04-11T10:16:34.710Z,85.30
2023-04-11T10:19:29.613Z,84.40
2023-04-11T10:22:47.472Z,84.20
2023-04-11T10:25:38.029Z,83.90
2023-04-11T10:28:37.771Z,83.50
2023-04-11T10:31:29.737Z,83.30
2023-04-11T10:34:20.894Z,83.10
2023-04-11T10:37:11.265Z,84.00
2023-04-11T10:40:12.613Z,83.00
2023-04-11T10:43:22.310Z,82.90
2023-04-11T10:46:35.050Z,82.90
2023-04-11T10:49:41.999Z,82.90
2023-04-11T10:52:39.189Z,83.00
2023-04-11T10:55:30.556Z,83.10
2023-04-11T10:58:24.051Z,83.50
2023-04-11T11:01:31.572Z,83.70
2023-04-11T11:04:37.413Z,83.50
2023-04-11T11:07:33.754Z,83.50
2023-04-11T11:10:37.007Z,82.80
2023-04-11T11:13:24.790Z,81.60
2023-04-11T11:16:18.904Z,81.80
2023-04-11T11:19:07.957Z,82.40
2023-04-11T11:21:59.959Z,81.70
2023-04-11T11:24:52.746Z,80.30
2023-04-11T11:27:45.969Z,78.90
2023-04-11T11:30:34.250Z,77.60
2023-04-11T11:33:23.635Z,76.70
2023-04-11T11:36:12.519Z,76.40
2023-04-11T11:39:04.564Z,75.60
2023-04-11T11:42:00.001Z,75.50
2023-04-11T11:44:47.832Z,74.70
2023-04-11T11:47:49.993Z,74.30
2023-04-11T11:50:39.051Z,74.70
2023-04-11T11:53:27.387Z,74.40
2023-04-11T11:56:17.877Z,74.10
2023-04-11T11:59:10.753Z,74.60
2023-04-11T12:01:59.130Z,73.90
2023-04-11T12:04:46.884Z,72.80
2023-04-11T12:07:43.040Z,72.60
2023-04-11T12:10:40.160Z,72.60
2023-04-11T12:13:33.944Z,71.80
2023-04-11T12:16:27.242Z,71.80
2023-04-11T12:19:16.869Z,71.90
2023-04-11T12:22:04.952Z,72.50
2023-04-11T12:24:54.205Z,71.00
2023-04-11T12:27:43.206Z,70.40
2023-04-11T12:30:34.425Z,70.20
2023-04-11T12:33:32.711Z,69.50
2023-04-11T12:36:24.329Z,68.50
2023-04-11T12:39:12.333Z,68.10
2023-04-11T12:41:59.594Z,67.60
2023-04-11T12:44:57.595Z,66.70
2023-04-11T12:47:48.391Z,66.50
2023-04-11T12:50:36.402Z,65.50
2023-04-11T12:53:25.054Z,65.40
2023-04-11T12:56:21.196Z,64.20
2023-04-11T12:59:14.324Z,64.30
2023-04-11T13:02:03.302Z,63.80
2023-04-11T13:04:56.373Z,64.40
2023-04-11T13:07:45.532Z,64.50
2023-04-11T13:10:38.689Z,64.50
2023-04-11T13:13:26.715Z,64.40
2023-04-11T13:16:14.161Z,64.40
2023-04-11T13:19:06.698Z,63.80
2023-04-11T13:22:00.247Z,63.30
2023-04-11T13:24:47.995Z,62.70
2023-04-11T13:27:35.912Z,62.80
2023-04-11T13:30:28.348Z,62.70
2023-04-11T13:33:18.720Z,62.40
2023-04-11T13:36:08.485Z,61.60
2023-04-11T13:39:02.777Z,61.60
2023-04-11T13:41:54.465Z,61.40
2023-04-11T13:44:47.938Z,61.90
2023-04-11T13:47:39.192Z,62.80
2023-04-11T13:50:27.365Z,63.10
2023-04-11T13:53:14.952Z,62.60
2023-04-11T13:56:06.888Z,62.30
2023-04-11T13:59:01.883Z,61.80
2023-04-11T14:01:58.065Z,63.30
2023-04-11T14:04:45.853Z,62.70
2023-04-11T14:07:38.337Z,62.70
2023-04-11T14:10:28.252Z,62.80
2023-04-11T14:13:20.091Z,63.00
2023-04-11T14:16:09.538Z,63.20
2023-04-11T14:18:57.700Z,63.80
2023-04-11T14:21:46.117Z,64.50
2023-04-11T14:24:36.566Z,65.10
2023-04-11T14:27:29.900Z,65.30
2023-04-11T14:30:26.275Z,66.10
2023-04-11T14:33:19.708Z,66.70
2023-04-11T14:36:08.590Z,67.00
2023-04-11T14:38:56.355Z,67.20
2023-04-11T14:41:48.767Z,67.60
2023-04-11T14:44:40.733Z,68.20
2023-04-11T14:47:36.019Z,68.70
2023-04-11T14:50:27.809Z,68.90
2023-04-11T14:53:18.525Z,68.90
2023-04-11T14:56:12.611Z,69.10
2023-04-11T14:59:03.275Z,69.80
2023-04-11T15:01:51.820Z,70.50
2023-04-11T15:04:46.837Z,71.10
2023-04-11T15:07:39.136Z,71.20
2023-04-11T15:10:28.543Z,71.20
2023-04-11T15:13:20.490Z,70.80
2023-04-11T15:16:16.622Z,70.90
2023-04-11T15:19:09.280Z,71.30
2023-04-11T15:22:01.024Z,71.40
2023-04-11T15:24:51.352Z,72.10
2023-04-11T15:27:39.371Z,71.30
2023-04-11T15:30:27.379Z,70.80
2023-04-11T15:33:17.530Z,70.20
2023-04-11T15:36:07.775Z,69.40
2023-04-11T15:39:14.995Z,69.10
2023-04-11T15:42:04.389Z,68.90
2023-04-11T15:44:51.690Z,68.80
2023-04-11T15:47:39.814Z,69.00
2023-04-11T15:50:29.617Z,69.10
2023-04-11T15:53:17.285Z,69.30
2023-04-11T15:56:08.506Z,69.70
2023-04-11T15:58:56.032Z,70.10
2023-04-11T16:01:43.862Z,69.50
2023-04-11T16:04:32.280Z,69.90
2023-04-11T16:07:20.483Z,69.90
2023-04-11T16:10:09.209Z,69.70
2023-04-11T16:12:58.575Z,69.50
2023-04-11T16:15:48.684Z,69.30
2023-04-11T16:18:36.588Z,69.20
2023-04-11T16:21:25.076Z,69.40
2023-04-11T16:24:13.157Z,69.70
2023-04-11T16:27:01.724Z,69.90
2023-04-11T16:29:51.633Z,70.40
2023-04-11T16:32:38.856Z,70.30
2023-04-11T16:35:26.412Z,70.60
2023-04-11T16:38:13.910Z,70.70
2023-04-11T16:41:02.201Z,70.90
2023-04-11T16:43:49.916Z,71.10
2023-04-11T16:46:39.489Z,71.30
2023-04-11T16:49:27.499Z,71.60
2023-04-11T16:52:14.710Z,71.70
2023-04-11T16:55:03.372Z,71.80
2023-04-11T16:57:50.557Z,71.80
2023-04-11T17:00:38.177Z,72.00
2023-04-11T17:03:26.662Z,72.10
2023-04-11T17:06:14.912Z,72.50
2023-04-11T17:09:01.989Z,72.80
2023-04-11T17:11:49.542Z,72.80
2023-04-11T17:14:37.688Z,73.00
2023-04-11T17:17:24.962Z,73.30
2023-04-11T17:20:14.852Z,73.40
2023-04-11T17:23:01.888Z,73.70
2023-04-11T17:25:52.235Z,73.90
2023-04-11T17:28:40.006Z,75.00
2023-04-11T17:31:29.307Z,74.50
2023-04-11T17:34:16.816Z,74.50
2023-04-11T17:37:06.567Z,75.00
2023-04-11T17:39:53.518Z,75.10
2023-04-11T17:42:41.379Z,75.30
2023-04-11T17:45:28.265Z,75.50
2023-04-11T17:48:15.555Z,75.70
2023-04-11T17:51:05.745Z,75.80
2023-04-11T17:53:54.557Z,76.10
2023-04-11T17:56:41.720Z,76.30
2023-04-11T17:59:29.660Z,76.40
2023-04-11T18:02:17.394Z,76.50
2023-04-11T18:05:13.067Z,76.70
2023-04-11T18:08:08.016Z,76.80
2023-04-11T18:10:56.677Z,77.10
2023-04-11T18:13:44.655Z,77.30
2023-04-11T18:16:31.912Z,77.30
2023-04-11T18:19:19.085Z,77.50
2023-04-11T18:22:06.525Z,77.60
2023-04-11T18:24:55.212Z,77.70
2023-04-11T18:27:43.602Z,78.00
2023-04-11T18:30:30.942Z,78.10
2023-04-11T18:33:19.631Z,78.30
2023-04-11T18:36:08.049Z,78.50
2023-04-11T18:38:56.407Z,78.60
2023-04-11T18:41:44.780Z,78.80
2023-04-11T18:44:36.739Z,78.90
2023-04-11T18:47:23.643Z,79.20
2023-04-11T18:50:10.987Z,79.30
2023-04-11T18:53:04.016Z,79.50
2023-04-11T18:55:52.928Z,79.70
2023-04-11T18:58:45.513Z,79.70
2023-04-11T19:01:35.470Z,79.90
2023-04-11T19:04:24.627Z,80.20
2023-04-11T19:07:12.622Z,80.20
2023-04-11T19:09:59.601Z,80.40
2023-04-11T19:12:46.436Z,80.50
2023-04-11T19:15:33.545Z,80.50
2023-04-11T19:18:22.007Z,80.70
2023-04-11T19:21:08.999Z,81.00
2023-04-11T19:23:57.964Z,81.20
2023-04-11T19:26:45.473Z,81.20
2023-04-11T19:29:32.483Z,81.20
2023-04-11T19:32:19.272Z,81.40
2023-04-11T19:35:09.299Z,81.60
2023-04-11T19:37:56.368Z,81.70
2023-04-11T19:40:43.369Z,81.70
2023-04-11T19:43:30.257Z,82.00
2023-04-11T19:46:18.350Z,82.00
2023-04-11T19:49:05.568Z,82.00
2023-04-11T19:51:54.136Z,82.20
2023-04-11T19:54:41.557Z,82.50
2023-04-11T19:57:29.037Z,82.40
2023-04-11T20:00:17.730Z,82.50
2023-04-11T20:03:05.961Z,82.70
2023-04-11T20:05:53.500Z,82.90
2023-04-11T20:08:41.997Z,82.90
2023-04-11T20:11:29.376Z,83.20
2023-04-11T20:14:16.458Z,83.30
2023-04-11T20:17:03.324Z,83.60
2023-04-11T20:19:54.894Z,83.70
2023-04-11T20:22:44.918Z,83.70
2023-04-11T20:25:34.119Z,84.00
2023-04-11T20:28:21.725Z,84.00
2023-04-11T20:31:08.802Z,84.30
2023-04-11T20:33:56.069Z,84.60
2023-04-11T20:36:43.764Z,84.60
2023-04-11T20:39:31.018Z,84.80
2023-04-11T20:42:20.856Z,84.90
2023-04-11T20:45:10.435Z,84.90
2023-04-11T20:47:59.758Z,85.10
2023-04-11T20:50:47.290Z,85.10
2023-04-11T20:53:35.379Z,85.30
2023-04-11T20:56:23.978Z,85.70
2023-04-11T20:59:13.099Z,85.90
2023-04-11T21:02:00.020Z,86.10
2023-04-11T21:04:48.709Z,86.20
2023-04-11T21:07:37.154Z,86.40
2023-04-11T21:10:24.587Z,86.40
2023-04-11T21:13:11.718Z,86.60
2023-04-11T21:16:00.488Z,86.80
2023-04-11T21:18:47.448Z,86.70
2023-04-11T21:21:34.969Z,86.80
2023-04-11T21:24:21.796Z,86.80
2023-04-11T21:27:08.811Z,87.00
2023-04-11T21:29:55.941Z,87.10
2023-04-11T21:32:44.195Z,87.20
2023-04-11T21:35:31.837Z,87.30
2023-04-11T21:38:18.661Z,87.50
2023-04-11T21:41:05.701Z,87.50
2023-04-11T21:43:52.522Z,87.70
2023-04-11T21:46:39.345Z,87.90
2023-04-11T21:49:27.916Z,87.90
2023-04-11T21:52:15.543Z,88.00
2023-04-11T21:55:02.693Z,88.00
2023-04-11T21:57:49.686Z,88.20
2023-04-11T22:00:36.613Z,88.20
2023-04-11T22:03:24.190Z,88.40
2023-04-11T22:06:13.218Z,88.40
2023-04-11T22:09:01.466Z,88.60
2023-04-11T22:11:48.629Z,88.80
2023-04-11T22:14:38.376Z,89.00
2023-04-11T22:17:25.408Z,89.00
2023-04-11T22:20:13.372Z,89.20
2023-04-11T22:23:02.315Z,89.30
2023-04-11T22:25:58.161Z,89.50
2023-04-11T22:28:45.778Z,89.40
2023-04-11T22:31:35.164Z,89.60
2023-04-11T22:34:21.936Z,89.80
2023-04-11T22:37:09.243Z,89.80
2023-04-11T22:39:57.727Z,90.00
2023-04-11T22:42:47.027Z,90.00
2023-04-11T22:45:36.197Z,90.10
2023-04-11T22:48:30.217Z,90.10
2023-04-11T22:51:17.246Z,90.20
2023-04-11T22:54:04.289Z,90.30
2023-04-11T22:56:56.638Z,90.30
2023-04-11T22:59:43.774Z,90.40
2023-04-11T23:02:31.973Z,90.40
2023-04-11T23:05:20.931Z,90.40
2023-04-11T23:08:07.988Z,90.40
2023-04-11T23:10:55.117Z,90.50
2023-04-11T23:13:43.372Z,90.40
2023-04-11T23:16:30.372Z,90.60
2023-04-11T23:19:18.970Z,90.50
2023-04-11T23:22:06.473Z,90.60
2023-04-11T23:24:53.881Z,90.60
2023-04-11T23:27:40.608Z,90.60
2023-04-11T23:30:30.066Z,90.60
2023-04-11T23:33:17.578Z,90.60
2023-04-11T23:36:05.040Z,90.70
2023-04-11T23:38:52.077Z,90.60
2023-04-11T23:41:39.214Z,90.60
2023-04-11T23:44:26.385Z,90.80
2023-04-11T23:47:14.704Z,90.60
2023-04-11T23:50:02.778Z,90.70
2023-04-11T23:52:50.044Z,90.70
2023-04-11T23:55:37.348Z,90.80
2023-04-11T23:58:24.443Z,90.70
